sensor_id;sensor_type;location;lat;lon;timestamp;pressure;altitude;pressure_sealevel;temperature;humidity
76128;BME280;64873;50.102;14.434;2024-03-23T00:56:05;98510.16;;;11.44;70.84
76128;BME280;64873;50.102;14.434;2024-03-23T00:58:31;98510.28;;;11.37;71.87
76128;BME280;64873;50.102;14.434;2024-03-23T01:00:56;98495.53;;;11.35;72.11
76128;BME280;64873;50.102;14.434;2024-03-23T01:03:21;98475.53;;;11.54;71.15
76128;BME280;64873;50.102;14.434;2024-03-23T01:05:47;98497.19;;;11.53;71.84
76128;BME280;64873;50.102;14.434;2024-03-23T01:08:14;98492.72;;;11.58;71.41
76128;BME280;64873;50.102;14.434;2024-03-23T01:10:39;98467.34;;;11.44;71.51
76128;BME280;64873;50.102;14.434;2024-03-23T01:13:05;98460.69;;;11.80;69.98
76128;BME280;64873;50.102;14.434;2024-03-23T01:15:30;98474.97;;;11.69;71.18
76128;BME280;64873;50.102;14.434;2024-03-23T01:17:55;98463.63;;;11.62;71.62
76128;BME280;64873;50.102;14.434;2024-03-23T01:20:21;98459.06;;;11.62;71.21
76128;BME280;64873;50.102;14.434;2024-03-23T01:22:46;98463.44;;;11.52;71.33
76128;BME280;64873;50.102;14.434;2024-03-23T01:25:11;98462.66;;;11.68;71.03
76128;BME280;64873;50.102;14.434;2024-03-23T01:27:37;98461.84;;;11.67;71.07
76128;BME280;64873;50.102;14.434;2024-03-23T01:30:02;98450.22;;;11.95;69.64
76128;BME280;64873;50.102;14.434;2024-03-23T01:32:28;98452.84;;;11.73;70.26
76128;BME280;64873;50.102;14.434;2024-03-23T01:34:53;98436.00;;;11.78;69.60
76128;BME280;64873;50.102;14.434;2024-03-23T01:37:18;98446.75;;;11.61;70.58
76128;BME280;64873;50.102;14.434;2024-03-23T01:39:44;98445.63;;;11.74;70.39
76128;BME280;64873;50.102;14.434;2024-03-23T01:42:09;98444.22;;;11.71;70.11
76128;BME280;64873;50.102;14.434;2024-03-23T01:44:35;98437.97;;;11.66;70.13
76128;BME280;64873;50.102;14.434;2024-03-23T01:47:00;98413.25;;;11.59;69.98
76128;BME280;64873;50.102;14.434;2024-03-23T01:49:26;98431.81;;;11.48;70.85
76128;BME280;64873;50.102;14.434;2024-03-23T01:51:51;98428.41;;;11.53;70.53
76128;BME280;64873;50.102;14.434;2024-03-23T01:54:17;98404.97;;;11.10;71.72
76128;BME280;64873;50.102;14.434;2024-03-23T01:56:42;98418.59;;;11.25;70.67
76128;BME280;64873;50.102;14.434;2024-03-23T01:59:08;98416.47;;;11.10;71.64
76128;BME280;64873;50.102;14.434;2024-03-23T02:01:35;98422.09;;;11.09;71.60
76128;BME280;64873;50.102;14.434;2024-03-23T02:04:03;98415.88;;;10.91;72.28
76128;BME280;64873;50.102;14.434;2024-03-23T02:06:29;98411.00;;;10.88;72.49
76128;BME280;64873;50.102;14.434;2024-03-23T02:08:55;98409.09;;;11.01;72.11
76128;BME280;64873;50.102;14.434;2024-03-23T02:11:20;98403.28;;;11.20;71.14
76128;BME280;64873;50.102;14.434;2024-03-23T02:13:46;98410.97;;;11.17;71.54
76128;BME280;64873;50.102;14.434;2024-03-23T02:16:11;98397.28;;;11.30;70.89
76128;BME280;64873;50.102;14.434;2024-03-23T02:18:38;98398.41;;;11.17;71.20
76128;BME280;64873;50.102;14.434;2024-03-23T02:21:04;98396.47;;;11.13;71.31
76128;BME280;64873;50.102;14.434;2024-03-23T02:23:29;98389.50;;;11.12;71.75
76128;BME280;64873;50.102;14.434;2024-03-23T02:25:54;98382.59;;;10.99;72.02
76128;BME280;64873;50.102;14.434;2024-03-23T02:28:20;98370.41;;;11.20;70.20
76128;BME280;64873;50.102;14.434;2024-03-23T02:30:48;98379.59;;;11.12;71.45
76128;BME280;64873;50.102;14.434;2024-03-23T02:33:13;98366.00;;;10.97;72.09
76128;BME280;64873;50.102;14.434;2024-03-23T02:35:39;98367.88;;;10.97;71.81
76128;BME280;64873;50.102;14.434;2024-03-23T02:38:04;98356.00;;;10.76;72.28
76128;BME280;64873;50.102;14.434;2024-03-23T02:40:29;98361.91;;;10.78;71.96
76128;BME280;64873;50.102;14.434;2024-03-23T02:42:55;98338.66;;;10.61;72.53
76128;BME280;64873;50.102;14.434;2024-03-23T02:45:20;98349.75;;;10.70;72.53
76128;BME280;64873;50.102;14.434;2024-03-23T02:47:46;98343.25;;;10.66;72.20
76128;BME280;64873;50.102;14.434;2024-03-23T02:50:11;98347.16;;;10.75;72.01
76128;BME280;64873;50.102;14.434;2024-03-23T02:52:37;98339.91;;;10.87;71.25
76128;BME280;64873;50.102;14.434;2024-03-23T02:55:03;98350.25;;;10.84;71.67
76128;BME280;64873;50.102;14.434;2024-03-23T02:57:29;98340.03;;;10.64;72.31
76128;BME280;64873;50.102;14.434;2024-03-23T02:59:54;98341.72;;;10.70;72.74
76128;BME280;64873;50.102;14.434;2024-03-23T03:02:20;98322.56;;;10.73;71.86
76128;BME280;64873;50.102;14.434;2024-03-23T03:04:45;98339.88;;;10.71;72.57
76128;BME280;64873;50.102;14.434;2024-03-23T03:07:10;98321.41;;;10.69;72.44
76128;BME280;64873;50.102;14.434;2024-03-23T03:09:36;98319.41;;;10.76;72.32
76128;BME280;64873;50.102;14.434;2024-03-23T03:12:07;98317.81;;;11.09;70.86
76128;BME280;64873;50.102;14.434;2024-03-23T03:14:33;98311.13;;;10.94;71.00
76128;BME280;64873;50.102;14.434;2024-03-23T03:16:58;98318.50;;;10.87;71.26
76128;BME280;64873;50.102;14.434;2024-03-23T03:19:23;98293.88;;;10.52;72.00
76128;BME280;64873;50.102;14.434;2024-03-23T03:21:49;98305.19;;;10.59;72.14
76128;BME280;64873;50.102;14.434;2024-03-23T03:24:14;98301.47;;;10.60;71.84
76128;BME280;64873;50.102;14.434;2024-03-23T03:26:40;98295.38;;;10.48;71.89
76128;BME280;64873;50.102;14.434;2024-03-23T03:29:05;98297.75;;;10.44;72.41
76128;BME280;64873;50.102;14.434;2024-03-23T03:31:30;98291.94;;;10.64;71.81
76128;BME280;64873;50.102;14.434;2024-03-23T03:33:56;98286.72;;;10.40;72.09
76128;BME280;64873;50.102;14.434;2024-03-23T03:36:21;98257.34;;;10.40;71.18
76128;BME280;64873;50.102;14.434;2024-03-23T03:38:47;98275.06;;;10.47;71.93
76128;BME280;64873;50.102;14.434;2024-03-23T03:41:12;98268.09;;;10.17;72.89
76128;BME280;64873;50.102;14.434;2024-03-23T03:43:37;98270.22;;;10.44;71.77
76128;BME280;64873;50.102;14.434;2024-03-23T03:46:03;98266.84;;;10.08;73.16
76128;BME280;64873;50.102;14.434;2024-03-23T03:48:29;98273.06;;;9.97;73.87
76128;BME280;64873;50.102;14.434;2024-03-23T03:50:54;98248.75;;;9.81;74.38
76128;BME280;64873;50.102;14.434;2024-03-23T03:53:20;98260.31;;;9.87;74.18
76128;BME280;64873;50.102;14.434;2024-03-23T03:55:46;98254.19;;;9.86;74.19
76128;BME280;64873;50.102;14.434;2024-03-23T03:58:11;98254.63;;;9.83;74.73
76128;BME280;64873;50.102;14.434;2024-03-23T04:00:37;98247.38;;;9.67;75.18
76128;BME280;64873;50.102;14.434;2024-03-23T04:03:03;98246.25;;;9.63;74.91
76128;BME280;64873;50.102;14.434;2024-03-23T04:05:28;98253.31;;;9.98;73.69
76128;BME280;64873;50.102;14.434;2024-03-23T04:07:54;98252.34;;;9.75;74.58
76128;BME280;64873;50.102;14.434;2024-03-23T04:10:20;98252.69;;;9.67;75.12
76128;BME280;64873;50.102;14.434;2024-03-23T04:12:45;98263.09;;;9.92;74.13
76128;BME280;64873;50.102;14.434;2024-03-23T04:15:11;98234.66;;;9.98;73.49
76128;BME280;64873;50.102;14.434;2024-03-23T04:17:36;98243.88;;;10.35;72.23
76128;BME280;64873;50.102;14.434;2024-03-23T04:20:03;98247.72;;;10.39;71.80
76128;BME280;64873;50.102;14.434;2024-03-23T04:22:34;98227.50;;;10.44;70.95
76128;BME280;64873;50.102;14.434;2024-03-23T04:25:00;98228.94;;;10.34;71.49
76128;BME280;64873;50.102;14.434;2024-03-23T04:27:34;98227.97;;;10.40;71.04
76128;BME280;64873;50.102;14.434;2024-03-23T04:30:00;98221.41;;;10.03;72.42
76128;BME280;64873;50.102;14.434;2024-03-23T04:32:29;98210.03;;;9.96;73.00
76128;BME280;64873;50.102;14.434;2024-03-23T04:34:55;98221.94;;;9.76;73.55
76128;BME280;64873;50.102;14.434;2024-03-23T04:37:21;98217.13;;;9.90;72.95
76128;BME280;64873;50.102;14.434;2024-03-23T04:39:47;98223.16;;;9.97;73.00
76128;BME280;64873;50.102;14.434;2024-03-23T04:42:14;98213.94;;;10.05;72.25
76128;BME280;64873;50.102;14.434;2024-03-23T04:44:40;98205.84;;;10.00;72.25
76128;BME280;64873;50.102;14.434;2024-03-23T04:47:05;98208.00;;;9.86;72.81
76128;BME280;64873;50.102;14.434;2024-03-23T04:49:31;98212.28;;;9.87;72.95
76128;BME280;64873;50.102;14.434;2024-03-23T04:51:56;98208.72;;;9.81;73.47
76128;BME280;64873;50.102;14.434;2024-03-23T04:54:22;98201.56;;;9.70;73.41
76128;BME280;64873;50.102;14.434;2024-03-23T04:56:47;98197.63;;;9.61;74.02
76128;BME280;64873;50.102;14.434;2024-03-23T04:59:12;98183.53;;;9.49;73.93
76128;BME280;64873;50.102;14.434;2024-03-23T05:01:38;98197.47;;;9.79;73.12
76128;BME280;64873;50.102;14.434;2024-03-23T05:04:07;98180.53;;;9.85;73.12
76128;BME280;64873;50.102;14.434;2024-03-23T05:06:32;98195.66;;;9.97;72.32
76128;BME280;64873;50.102;14.434;2024-03-23T05:08:58;98192.81;;;9.86;73.10
76128;BME280;64873;50.102;14.434;2024-03-23T05:11:23;98175.75;;;9.87;72.91
76128;BME280;64873;50.102;14.434;2024-03-23T05:13:48;98175.94;;;9.98;72.55
76128;BME280;64873;50.102;14.434;2024-03-23T05:16:14;98169.47;;;10.10;71.80
76128;BME280;64873;50.102;14.434;2024-03-23T05:18:39;98177.56;;;10.15;72.17
76128;BME280;64873;50.102;14.434;2024-03-23T05:21:05;98172.22;;;9.99;72.25
76128;BME280;64873;50.102;14.434;2024-03-23T05:23:30;98159.91;;;9.98;72.21
76128;BME280;64873;50.102;14.434;2024-03-23T05:25:55;98156.66;;;9.96;72.53
76128;BME280;64873;50.102;14.434;2024-03-23T05:28:22;98165.41;;;10.08;72.59
76128;BME280;64873;50.102;14.434;2024-03-23T05:30:51;98144.56;;;10.05;71.94
76128;BME280;64873;50.102;14.434;2024-03-23T05:33:21;98169.47;;;10.39;70.92
76128;BME280;64873;50.102;14.434;2024-03-23T05:35:47;98147.63;;;10.13;71.81
76128;BME280;64873;50.102;14.434;2024-03-23T05:38:20;98142.84;;;10.27;71.39
76128;BME280;64873;50.102;14.434;2024-03-23T05:40:56;98131.31;;;10.10;71.13
76128;BME280;64873;50.102;14.434;2024-03-23T05:43:22;98134.88;;;10.15;71.96
76128;BME280;64873;50.102;14.434;2024-03-23T05:46:00;98140.50;;;10.19;71.98
76128;BME280;64873;50.102;14.434;2024-03-23T05:48:30;98116.41;;;10.14;71.77
76128;BME280;64873;50.102;14.434;2024-03-23T05:50:56;98135.38;;;10.29;71.70
76128;BME280;64873;50.102;14.434;2024-03-23T05:53:22;98111.44;;;10.34;70.71
76128;BME280;64873;50.102;14.434;2024-03-23T05:55:48;98109.00;;;10.50;69.51
76128;BME280;64873;50.102;14.434;2024-03-23T05:58:17;98126.38;;;10.52;70.17
76128;BME280;64873;50.102;14.434;2024-03-23T06:00:43;98122.28;;;10.45;70.12
76128;BME280;64873;50.102;14.434;2024-03-23T06:03:09;98109.81;;;10.33;70.24
76128;BME280;64873;50.102;14.434;2024-03-23T06:05:35;98116.09;;;10.61;69.55
76128;BME280;64873;50.102;14.434;2024-03-23T06:08:01;98119.19;;;10.53;70.04
76128;BME280;64873;50.102;14.434;2024-03-23T06:10:28;98110.53;;;10.46;70.12
76128;BME280;64873;50.102;14.434;2024-03-23T06:12:53;98097.34;;;10.39;70.39
76128;BME280;64873;50.102;14.434;2024-03-23T06:15:19;98104.84;;;10.59;69.91
76128;BME280;64873;50.102;14.434;2024-03-23T06:17:44;98085.00;;;10.55;69.92
76128;BME280;64873;50.102;14.434;2024-03-23T06:20:10;98070.25;;;10.69;69.37
76128;BME280;64873;50.102;14.434;2024-03-23T06:22:36;98078.28;;;10.69;69.13
76128;BME280;64873;50.102;14.434;2024-03-23T06:25:02;98077.03;;;10.77;69.11
76128;BME280;64873;50.102;14.434;2024-03-23T06:27:27;98065.72;;;10.70;69.30
76128;BME280;64873;50.102;14.434;2024-03-23T06:29:53;98061.19;;;10.70;69.33
76128;BME280;64873;50.102;14.434;2024-03-23T06:32:18;98060.19;;;10.76;69.54
76128;BME280;64873;50.102;14.434;2024-03-23T06:34:44;98049.63;;;10.86;69.33
76128;BME280;64873;50.102;14.434;2024-03-23T06:37:11;98041.50;;;10.98;68.50
76128;BME280;64873;50.102;14.434;2024-03-23T06:39:37;98051.06;;;11.16;68.08
76128;BME280;64873;50.102;14.434;2024-03-23T06:42:02;98018.66;;;10.90;68.51
76128;BME280;64873;50.102;14.434;2024-03-23T06:44:28;98044.31;;;11.13;68.17
76128;BME280;64873;50.102;14.434;2024-03-23T06:46:54;98035.03;;;10.94;69.52
76128;BME280;64873;50.102;14.434;2024-03-23T06:49:20;98023.25;;;11.17;68.67
76128;BME280;64873;50.102;14.434;2024-03-23T06:51:45;98034.56;;;11.24;68.38
76128;BME280;64873;50.102;14.434;2024-03-23T06:54:11;98026.06;;;10.83;69.86
76128;BME280;64873;50.102;14.434;2024-03-23T06:56:36;98022.91;;;10.86;70.01
76128;BME280;64873;50.102;14.434;2024-03-23T06:59:02;98013.09;;;10.70;70.30
76128;BME280;64873;50.102;14.434;2024-03-23T07:01:27;98014.84;;;10.81;70.43
76128;BME280;64873;50.102;14.434;2024-03-23T07:03:54;98007.81;;;10.97;69.94
76128;BME280;64873;50.102;14.434;2024-03-23T07:06:20;97996.19;;;11.13;69.03
76128;BME280;64873;50.102;14.434;2024-03-23T07:08:45;98000.44;;;11.36;68.51
76128;BME280;64873;50.102;14.434;2024-03-23T07:11:11;97981.81;;;11.46;67.95
76128;BME280;64873;50.102;14.434;2024-03-23T07:13:36;97997.72;;;11.31;68.83
76128;BME280;64873;50.102;14.434;2024-03-23T07:16:01;97978.13;;;11.20;68.60
76128;BME280;64873;50.102;14.434;2024-03-23T07:18:27;97986.81;;;11.11;69.51
76128;BME280;64873;50.102;14.434;2024-03-23T07:20:56;97972.69;;;11.42;68.65
76128;BME280;64873;50.102;14.434;2024-03-23T07:23:23;97962.50;;;11.39;68.63
76128;BME280;64873;50.102;14.434;2024-03-23T07:26:04;97953.91;;;11.37;68.69
76128;BME280;64873;50.102;14.434;2024-03-23T07:28:30;97955.91;;;11.20;69.34
76128;BME280;64873;50.102;14.434;2024-03-23T07:31:06;97960.63;;;11.40;68.86
76128;BME280;64873;50.102;14.434;2024-03-23T07:33:34;97958.97;;;11.34;69.01
76128;BME280;64873;50.102;14.434;2024-03-23T07:36:00;97956.59;;;11.69;67.87
76128;BME280;64873;50.102;14.434;2024-03-23T07:38:26;97969.72;;;11.71;67.79
76128;BME280;64873;50.102;14.434;2024-03-23T07:40:52;97956.84;;;11.68;67.83
76128;BME280;64873;50.102;14.434;2024-03-23T07:43:24;97931.22;;;11.77;67.04
76128;BME280;64873;50.102;14.434;2024-03-23T07:45:52;97944.22;;;11.95;66.60
76128;BME280;64873;50.102;14.434;2024-03-23T07:48:18;97928.09;;;11.85;67.00
76128;BME280;64873;50.102;14.434;2024-03-23T07:50:43;97936.22;;;12.00;66.87
76128;BME280;64873;50.102;14.434;2024-03-23T07:53:09;97926.09;;;12.13;66.39
76128;BME280;64873;50.102;14.434;2024-03-23T07:55:34;97909.22;;;12.07;66.37
76128;BME280;64873;50.102;14.434;2024-03-23T07:57:59;97913.59;;;12.23;66.11
76128;BME280;64873;50.102;14.434;2024-03-23T08:00:25;97894.06;;;12.28;65.65
76128;BME280;64873;50.102;14.434;2024-03-23T08:02:51;97884.09;;;12.18;65.75
76128;BME280;64873;50.102;14.434;2024-03-23T08:05:16;97904.81;;;12.38;65.77
76128;BME280;64873;50.102;14.434;2024-03-23T08:07:42;97893.06;;;12.44;64.75
76128;BME280;64873;50.102;14.434;2024-03-23T08:10:07;97866.72;;;12.31;64.96
76128;BME280;64873;50.102;14.434;2024-03-23T08:12:33;97896.06;;;12.63;64.22
76128;BME280;64873;50.102;14.434;2024-03-23T08:14:58;97893.66;;;12.72;64.07
76128;BME280;64873;50.102;14.434;2024-03-23T08:17:23;97880.25;;;12.77;63.96
76128;BME280;64873;50.102;14.434;2024-03-23T08:19:49;97879.75;;;12.85;63.63
76128;BME280;64873;50.102;14.434;2024-03-23T08:22:14;97871.16;;;12.88;63.89
76128;BME280;64873;50.102;14.434;2024-03-23T08:24:39;97877.09;;;13.05;63.16
76128;BME280;64873;50.102;14.434;2024-03-23T08:27:05;97867.97;;;13.06;63.02
76128;BME280;64873;50.102;14.434;2024-03-23T08:29:30;97861.53;;;13.13;62.91
76128;BME280;64873;50.102;14.434;2024-03-23T08:31:56;97848.16;;;13.23;62.84
76128;BME280;64873;50.102;14.434;2024-03-23T08:34:22;97859.16;;;13.52;61.82
76128;BME280;64873;50.102;14.434;2024-03-23T08:36:47;97857.47;;;13.76;61.07
76128;BME280;64873;50.102;14.434;2024-03-23T08:39:13;97860.38;;;13.95;60.80
76128;BME280;64873;50.102;14.434;2024-03-23T08:41:38;97839.66;;;14.11;60.13
76128;BME280;64873;50.102;14.434;2024-03-23T08:44:03;97836.56;;;14.43;59.37
76128;BME280;64873;50.102;14.434;2024-03-23T08:46:29;97849.25;;;14.82;57.78
76128;BME280;64873;50.102;14.434;2024-03-23T08:48:54;97847.22;;;15.08;55.97
76128;BME280;64873;50.102;14.434;2024-03-23T08:51:19;97846.63;;;15.45;54.43
76128;BME280;64873;50.102;14.434;2024-03-23T08:53:45;97833.69;;;16.00;52.90
76128;BME280;64873;50.102;14.434;2024-03-23T08:56:10;97838.56;;;15.98;52.52
76128;BME280;64873;50.102;14.434;2024-03-23T08:58:37;97843.66;;;15.76;52.80
76128;BME280;64873;50.102;14.434;2024-03-23T09:01:13;97837.91;;;15.53;51.85
76128;BME280;64873;50.102;14.434;2024-03-23T09:03:39;97829.78;;;15.58;51.31
76128;BME280;64873;50.102;14.434;2024-03-23T09:06:08;97857.91;;;15.47;52.01
76128;BME280;64873;50.102;14.434;2024-03-23T09:08:35;97845.88;;;15.39;51.81
76128;BME280;64873;50.102;14.434;2024-03-23T09:11:05;97848.31;;;15.07;52.13
76128;BME280;64873;50.102;14.434;2024-03-23T09:13:35;97864.19;;;15.03;52.60
76128;BME280;64873;50.102;14.434;2024-03-23T09:16:01;97874.72;;;14.94;52.98
76128;BME280;64873;50.102;14.434;2024-03-23T09:18:27;97864.41;;;14.68;53.69
76128;BME280;64873;50.102;14.434;2024-03-23T09:20:52;97863.16;;;14.45;54.64
76128;BME280;64873;50.102;14.434;2024-03-23T09:23:21;97882.78;;;14.45;54.66
76128;BME280;64873;50.102;14.434;2024-03-23T09:25:46;97899.00;;;14.25;55.56
76128;BME280;64873;50.102;14.434;2024-03-23T09:28:12;97911.84;;;14.33;56.29
76128;BME280;64873;50.102;14.434;2024-03-23T09:30:37;97899.84;;;14.05;57.57
76128;BME280;64873;50.102;14.434;2024-03-23T09:33:10;97919.50;;;13.85;59.74
76128;BME280;64873;50.102;14.434;2024-03-23T09:35:43;97910.41;;;13.40;64.08
76128;BME280;64873;50.102;14.434;2024-03-23T09:38:09;97907.13;;;13.18;66.56
76128;BME280;64873;50.102;14.434;2024-03-23T09:40:40;97907.66;;;13.04;67.14
76128;BME280;64873;50.102;14.434;2024-03-23T09:43:07;97894.50;;;12.93;67.29
76128;BME280;64873;50.102;14.434;2024-03-23T09:45:40;97896.09;;;12.89;66.77
76128;BME280;64873;50.102;14.434;2024-03-23T09:48:09;97892.06;;;12.81;67.30
76128;BME280;64873;50.102;14.434;2024-03-23T09:50:38;97910.84;;;12.86;66.32
76128;BME280;64873;50.102;14.434;2024-03-23T09:53:06;97911.38;;;12.83;66.92
76128;BME280;64873;50.102;14.434;2024-03-23T09:55:32;97911.34;;;12.68;67.09
76128;BME280;64873;50.102;14.434;2024-03-23T09:57:58;97893.28;;;12.43;67.72
76128;BME280;64873;50.102;14.434;2024-03-23T10:00:23;97920.44;;;12.57;67.61
76128;BME280;64873;50.102;14.434;2024-03-23T10:02:48;97930.28;;;12.41;68.07
76128;BME280;64873;50.102;14.434;2024-03-23T10:05:23;97940.13;;;12.30;68.49
76128;BME280;64873;50.102;14.434;2024-03-23T10:07:50;97946.84;;;12.33;67.75
76128;BME280;64873;50.102;14.434;2024-03-23T10:10:16;97951.44;;;12.37;67.38
76128;BME280;64873;50.102;14.434;2024-03-23T10:12:49;97962.47;;;12.51;67.31
76128;BME280;64873;50.102;14.434;2024-03-23T10:15:19;97978.78;;;12.44;67.08
76128;BME280;64873;50.102;14.434;2024-03-23T10:17:45;97967.28;;;12.49;66.38
76128;BME280;64873;50.102;14.434;2024-03-23T10:20:10;97958.44;;;12.43;66.20
76128;BME280;64873;50.102;14.434;2024-03-23T10:22:39;97957.84;;;12.41;66.33
76128;BME280;64873;50.102;14.434;2024-03-23T10:25:09;97978.50;;;12.41;66.15
76128;BME280;64873;50.102;14.434;2024-03-23T10:27:35;97965.88;;;12.36;66.41
76128;BME280;64873;50.102;14.434;2024-03-23T10:30:11;97966.16;;;12.40;66.52
76128;BME280;64873;50.102;14.434;2024-03-23T10:32:37;97979.22;;;12.31;66.30
76128;BME280;64873;50.102;14.434;2024-03-23T10:35:18;97983.50;;;12.27;66.29
76128;BME280;64873;50.102;14.434;2024-03-23T10:37:44;98002.63;;;12.46;66.31
76128;BME280;64873;50.102;14.434;2024-03-23T10:40:13;97997.06;;;12.58;66.30
76128;BME280;64873;50.102;14.434;2024-03-23T10:42:39;97992.63;;;12.31;66.61
76128;BME280;64873;50.102;14.434;2024-03-23T10:45:05;97993.34;;;12.64;66.51
76128;BME280;64873;50.102;14.434;2024-03-23T10:47:33;97996.28;;;12.62;65.51
76128;BME280;64873;50.102;14.434;2024-03-23T10:49:59;97975.06;;;12.50;65.51
76128;BME280;64873;50.102;14.434;2024-03-23T10:52:24;97997.28;;;12.46;65.80
76128;BME280;64873;50.102;14.434;2024-03-23T10:54:51;97977.59;;;12.20;66.09
76128;BME280;64873;50.102;14.434;2024-03-23T10:57:18;97977.03;;;12.18;66.19
76128;BME280;64873;50.102;14.434;2024-03-23T10:59:45;97993.75;;;12.40;65.76
76128;BME280;64873;50.102;14.434;2024-03-23T11:02:21;97986.59;;;12.51;65.59
76128;BME280;64873;50.102;14.434;2024-03-23T11:04:47;97985.88;;;12.76;63.78
76128;BME280;64873;50.102;14.434;2024-03-23T11:07:30;97993.16;;;12.80;63.50
76128;BME280;64873;50.102;14.434;2024-03-23T11:09:56;97996.13;;;12.84;62.85
76128;BME280;64873;50.102;14.434;2024-03-23T11:15:05;97990.75;;;12.89;63.00
76128;BME280;64873;50.102;14.434;2024-03-23T11:17:32;97996.53;;;13.33;61.85
76128;BME280;64873;50.102;14.434;2024-03-23T11:20:01;97982.81;;;13.20;61.16
76128;BME280;64873;50.102;14.434;2024-03-23T11:25:12;97955.47;;;13.48;59.96
76128;BME280;64873;50.102;14.434;2024-03-23T11:27:37;97967.31;;;13.73;58.51
76128;BME280;64873;50.102;14.434;2024-03-23T11:30:13;97958.16;;;13.89;57.29
76128;BME280;64873;50.102;14.434;2024-03-23T11:32:40;97992.25;;;13.88;57.42
76128;BME280;64873;50.102;14.434;2024-03-23T11:35:06;97977.47;;;14.11;56.98
76128;BME280;64873;50.102;14.434;2024-03-23T11:37:32;97980.66;;;14.24;55.71
76128;BME280;64873;50.102;14.434;2024-03-23T11:39:57;97965.91;;;14.06;55.27
76128;BME280;64873;50.102;14.434;2024-03-23T11:42:22;98009.19;;;13.79;55.46
76128;BME280;64873;50.102;14.434;2024-03-23T11:44:48;98062.09;;;12.95;58.05
76128;BME280;64873;50.102;14.434;2024-03-23T11:47:13;98037.84;;;11.31;61.97
76128;BME280;64873;50.102;14.434;2024-03-23T11:49:39;98019.34;;;10.59;63.60
76128;BME280;64873;50.102;14.434;2024-03-23T11:52:06;98060.19;;;10.76;62.88
76128;BME280;64873;50.102;14.434;2024-03-23T11:54:32;98057.59;;;10.81;61.04
76128;BME280;64873;50.102;14.434;2024-03-23T11:57:08;98076.66;;;10.90;60.72
76128;BME280;64873;50.102;14.434;2024-03-23T11:59:38;98076.13;;;10.88;60.63
76128;BME280;64873;50.102;14.434;2024-03-23T12:02:08;98094.63;;;10.94;60.75
76128;BME280;64873;50.102;14.434;2024-03-23T12:04:35;98092.25;;;10.76;61.54
76128;BME280;64873;50.102;14.434;2024-03-23T12:07:20;98098.75;;;10.80;60.84
76128;BME280;64873;50.102;14.434;2024-03-23T12:10:06;98119.09;;;10.64;60.81
76128;BME280;64873;50.102;14.434;2024-03-23T12:12:32;98133.75;;;10.62;59.95
76128;BME280;64873;50.102;14.434;2024-03-23T12:15:08;98148.31;;;10.37;58.31
76128;BME280;64873;50.102;14.434;2024-03-23T12:17:34;98149.50;;;10.13;57.67
76128;BME280;64873;50.102;14.434;2024-03-23T12:20:00;98137.31;;;10.51;57.01
76128;BME280;64873;50.102;14.434;2024-03-23T12:22:27;98125.38;;;10.75;55.86
76128;BME280;64873;50.102;14.434;2024-03-23T12:24:52;98130.56;;;10.65;56.45
76128;BME280;64873;50.102;14.434;2024-03-23T12:27:17;98133.75;;;10.45;56.09
76128;BME280;64873;50.102;14.434;2024-03-23T12:29:43;98136.00;;;10.70;55.84
76128;BME280;64873;50.102;14.434;2024-03-23T12:32:11;98139.22;;;10.72;55.63
76128;BME280;64873;50.102;14.434;2024-03-23T12:34:36;98143.66;;;10.83;54.24
76128;BME280;64873;50.102;14.434;2024-03-23T12:37:01;98157.94;;;10.55;53.83
76128;BME280;64873;50.102;14.434;2024-03-23T12:39:27;98161.56;;;10.66;53.78
76128;BME280;64873;50.102;14.434;2024-03-23T12:41:52;98166.19;;;10.54;53.48
76128;BME280;64873;50.102;14.434;2024-03-23T12:44:18;98156.41;;;10.26;53.57
76128;BME280;64873;50.102;14.434;2024-03-23T12:46:44;98177.41;;;10.22;53.33
76128;BME280;64873;50.102;14.434;2024-03-23T12:49:10;98194.25;;;10.23;52.54
76128;BME280;64873;50.102;14.434;2024-03-23T12:51:35;98211.13;;;10.11;52.46
76128;BME280;64873;50.102;14.434;2024-03-23T12:54:01;98235.00;;;10.18;53.11
76128;BME280;64873;50.102;14.434;2024-03-23T12:56:26;98232.81;;;9.86;52.74
76128;BME280;64873;50.102;14.434;2024-03-23T12:58:56;98237.25;;;10.09;52.24
76128;BME280;64873;50.102;14.434;2024-03-23T13:01:23;98266.78;;;10.03;52.20
76128;BME280;64873;50.102;14.434;2024-03-23T13:03:49;98289.34;;;10.12;52.27
76128;BME280;64873;50.102;14.434;2024-03-23T13:06:15;98276.47;;;9.80;52.84
76128;BME280;64873;50.102;14.434;2024-03-23T13:08:41;98269.69;;;9.89;53.35
76128;BME280;64873;50.102;14.434;2024-03-23T13:11:09;98289.97;;;10.02;52.92
76128;BME280;64873;50.102;14.434;2024-03-23T13:13:36;98307.13;;;10.06;53.17
76128;BME280;64873;50.102;14.434;2024-03-23T13:16:02;98287.88;;;10.04;52.93
76128;BME280;64873;50.102;14.434;2024-03-23T13:18:31;98301.47;;;10.03;52.59
76128;BME280;64873;50.102;14.434;2024-03-23T13:20:57;98298.44;;;9.99;52.38
76128;BME280;64873;50.102;14.434;2024-03-23T13:23:23;98292.97;;;10.06;52.64
76128;BME280;64873;50.102;14.434;2024-03-23T13:25:53;98301.66;;;10.13;52.72
76128;BME280;64873;50.102;14.434;2024-03-23T13:28:19;98277.13;;;9.87;51.60
76128;BME280;64873;50.102;14.434;2024-03-23T13:33:16;98297.25;;;10.07;50.80
76128;BME280;64873;50.102;14.434;2024-03-23T13:35:49;98303.25;;;10.14;50.86
76128;BME280;64873;50.102;14.434;2024-03-23T13:38:14;98309.84;;;9.95;51.62
76128;BME280;64873;50.102;14.434;2024-03-23T13:40:49;98330.16;;;10.36;51.05
76128;BME280;64873;50.102;14.434;2024-03-23T13:43:15;98321.47;;;10.29;50.82
76128;BME280;64873;50.102;14.434;2024-03-23T13:45:40;98315.34;;;10.28;51.19
76128;BME280;64873;50.102;14.434;2024-03-23T13:48:06;98311.16;;;10.49;50.98
76128;BME280;64873;50.102;14.434;2024-03-23T13:50:31;98322.84;;;10.31;51.04